Terminal Aerodrome Forecast
Issued by NWS

Home | Current Version | Previous Version | Text Only | Print | Product List | Glossary Off
Versions: 1 2 3 4 5 6 7 8 9 10 11 12 13 14 15 16

000
FTUS43 KOAX 190520
TAFCDR
TAF
KCDR 190520Z 1906/2006 24005KT P6SM SKC
     FM191700 26010KT P6SM FEW250
     FM200000 24006KT P6SM SCT250=

USA.gov is the U.S. government's official web portal to all federal, state and local government web resources and services.